createdAt,value
2023-04-02T00:06:31.244Z,5.6
2023-04-02T01:26:50.699Z,4.7
2023-04-02T01:36:53.362Z,4.7
2023-04-02T01:46:55.820Z,4.6
2023-04-02T02:27:05.274Z,4.2
2023-04-02T02:37:07.738Z,4.1
2023-04-02T02:57:12.157Z,3.8
2023-04-02T03:00:06.680Z,3.8
2023-04-02T03:17:26.417Z,3.8
2023-04-02T03:27:28.166Z,3.7
2023-04-02T03:37:30.744Z,3.7
2023-04-02T03:47:33.103Z,3.8
2023-04-02T03:57:35.054Z,3.7
2023-04-02T04:07:36.788Z,3.5
2023-04-02T04:17:39.413Z,3.3
2023-04-02T04:27:41.759Z,3.3
2023-04-02T04:37:44.337Z,3.3
2023-04-02T04:47:46.929Z,3.2
2023-04-02T04:57:48.886Z,3.2
2023-04-02T05:07:51.334Z,3.1
2023-04-02T05:17:53.289Z,3.2
2023-04-02T05:27:55.915Z,3
2023-04-02T05:37:58.125Z,3
2023-04-02T05:48:00.253Z,2.8
2023-04-02T06:08:05.068Z,2.8
2023-04-02T06:18:07.081Z,2.7
2023-04-02T06:28:09.001Z,2.8
2023-04-02T06:38:11.365Z,2.8
2023-04-02T06:58:15.933Z,2.6
2023-04-02T07:08:18.589Z,2.6
2023-04-02T07:18:20.870Z,2.8
2023-04-02T07:28:22.983Z,2.7
2023-04-02T07:38:25.013Z,2.7
2023-04-02T07:48:26.748Z,2.9
2023-04-02T07:58:29.367Z,2.9
2023-04-02T08:08:31.559Z,2.9
2023-04-02T08:18:33.318Z,3
2023-04-02T08:28:36.005Z,3.1
2023-04-02T08:38:38.617Z,3
2023-04-02T08:58:43.474Z,3.1
2023-04-02T09:08:45.778Z,3.2
2023-04-02T09:18:47.969Z,3.2
2023-04-02T09:28:50.332Z,3.5
2023-04-02T09:38:52.111Z,3.6
2023-04-02T09:48:54.013Z,3.7
2023-04-02T10:08:59.149Z,3.7
2023-04-02T10:19:01.016Z,3.6
2023-04-02T10:29:03.981Z,3.7
2023-04-02T10:39:05.018Z,3.8
2023-04-02T10:49:07.635Z,3.9
2023-04-02T10:59:09.743Z,4.1
2023-04-02T11:09:11.574Z,4.3
2023-04-02T11:19:13.530Z,4.2
2023-04-02T11:29:15.289Z,4.5
2023-04-02T11:49:20.224Z,4.5
2023-04-02T11:59:22.183Z,4.5
2023-04-02T12:19:26.061Z,5
2023-04-02T12:29:28.485Z,5.6
2023-04-02T12:39:31.084Z,5.5
2023-04-02T12:59:34.924Z,6.5
2023-04-02T13:09:37.161Z,7
2023-04-02T13:19:39.717Z,7.4
2023-04-02T13:29:42.003Z,6.5
2023-04-02T13:39:44.000Z,7
2023-04-02T13:49:46.189Z,6.6
2023-04-02T13:59:48.331Z,6.8
2023-04-02T14:09:50.501Z,6.9
2023-04-02T14:19:52.553Z,7.1
2023-04-02T14:29:55.060Z,7.2
2023-04-02T14:39:57.707Z,7.9
2023-04-02T14:49:59.838Z,7.1
2023-04-02T15:00:02.148Z,6.9
2023-04-02T15:10:04.270Z,6.8
2023-04-02T15:20:06.560Z,6.7
2023-04-02T15:30:08.347Z,6.5
2023-04-02T15:40:09.996Z,6.7
2023-04-02T15:50:12.626Z,7
2023-04-02T16:00:15.203Z,7.3
2023-04-02T16:10:17.994Z,7.1
2023-04-02T16:20:19.023Z,7.1
2023-04-02T16:30:20.724Z,7.5
2023-04-02T16:40:22.457Z,7.2
2023-04-02T16:50:25.028Z,6.9
2023-04-02T17:00:27.043Z,6.8
2023-04-02T17:10:29.088Z,6.7
2023-04-02T17:20:31.397Z,6.6
2023-04-02T17:30:33.579Z,6.6
2023-04-02T17:40:35.556Z,6.5
2023-04-02T17:50:37.383Z,6.3
2023-04-02T18:00:39.420Z,6.2
2023-04-02T18:10:41.150Z,6.1
2023-04-02T18:20:43.738Z,5.9
2023-04-02T18:30:45.886Z,5.9
2023-04-02T18:40:48.224Z,5.6
2023-04-02T18:50:50.591Z,5.4
2023-04-02T19:00:52.823Z,5.3
2023-04-02T19:10:55.246Z,5.3
2023-04-02T19:20:57.884Z,5.2
2023-04-02T19:31:00.353Z,5.1
2023-04-02T19:41:02.680Z,5
2023-04-02T19:51:04.449Z,4.7
2023-04-02T20:01:06.748Z,4.7
2023-04-02T20:11:08.689Z,4.6
2023-04-02T20:21:10.727Z,4.4
2023-04-02T20:31:13.307Z,4.3
2023-04-02T20:41:15.941Z,4.2
2023-04-02T20:51:18.198Z,4
2023-04-02T21:01:20.884Z,3.9
2023-04-02T21:11:22.990Z,3.9
2023-04-02T21:21:25.360Z,3.7
2023-04-02T21:31:27.915Z,3.5
2023-04-02T21:41:29.903Z,3.3
2023-04-02T21:51:32.099Z,3.4
2023-04-02T22:01:34.189Z,3.2
2023-04-02T22:11:36.414Z,3
2023-04-02T22:21:38.819Z,2.6
2023-04-02T22:31:40.549Z,2.4
2023-04-02T22:41:42.556Z,2.1
2023-04-02T22:51:45.637Z,2.1
2023-04-02T23:01:47.455Z,2
2023-04-02T23:11:49.049Z,2.1
2023-04-02T23:21:51.158Z,2
2023-04-02T23:31:53.621Z,1.9
2023-04-02T23:41:55.401Z,1.8
2023-04-02T23:51:57.416Z,1.9
